createdAt,value
2023-03-20T00:01:34.180Z,5.65
2023-03-20T00:04:07.537Z,6.60
2023-03-20T00:06:43.051Z,6.30
2023-03-20T00:09:16.033Z,6.22
2023-03-20T00:11:52.811Z,6.55
2023-03-20T00:14:27.274Z,5.72
2023-03-20T00:17:00.374Z,6.55
2023-03-20T00:19:33.463Z,5.65
2023-03-20T00:22:06.660Z,6.20
2023-03-20T00:24:39.742Z,6.72
2023-03-20T00:27:15.093Z,6.12
2023-03-20T00:29:48.161Z,6.72
2023-03-20T00:32:21.408Z,7.53
2023-03-20T00:34:54.466Z,6.47
2023-03-20T00:37:29.111Z,6.95
2023-03-20T00:40:03.249Z,6.55
2023-03-20T00:42:36.410Z,7.33
2023-03-20T00:45:16.228Z,7.53
2023-03-20T00:47:54.196Z,7.05
2023-03-20T00:50:29.898Z,7.60
2023-03-20T00:53:03.454Z,7.05
2023-03-20T00:55:36.849Z,6.80
2023-03-20T00:58:14.425Z,7.37
2023-03-20T01:00:48.031Z,7.12
2023-03-20T01:03:23.008Z,6.60
2023-03-20T01:05:57.582Z,6.22
2023-03-20T01:08:30.697Z,9.25
2023-03-20T01:11:03.666Z,6.45
2023-03-20T01:13:38.149Z,5.78
2023-03-20T01:16:21.393Z,6.83
2023-03-20T01:18:54.954Z,6.12
2023-03-20T01:21:27.870Z,5.83
2023-03-20T01:24:00.818Z,6.67
2023-03-20T01:26:38.264Z,5.95
2023-03-20T01:29:22.511Z,6.58
2023-03-20T01:31:56.568Z,6.10
2023-03-20T01:34:31.177Z,5.40
2023-03-20T01:37:04.532Z,6.67
2023-03-20T01:39:39.888Z,6.60
2023-03-20T01:42:17.337Z,8.95
2023-03-20T01:44:50.450Z,8.47
2023-03-20T01:47:26.288Z,6.90
2023-03-20T01:50:35.354Z,5.83
2023-03-20T01:53:21.861Z,5.90
2023-03-20T01:58:42.650Z,6.87
2023-03-20T02:01:16.898Z,6.35
2023-03-20T02:03:52.752Z,8.08
2023-03-20T02:06:30.181Z,9.70
2023-03-20T02:09:05.588Z,8.23
2023-03-20T02:11:43.389Z,8.33
2023-03-20T02:14:17.196Z,9.03
2023-03-20T02:16:57.035Z,9.40
2023-03-20T02:19:38.079Z,9.75
2023-03-20T02:22:29.931Z,7.47
2023-03-20T02:25:28.605Z,8.30
2023-03-20T02:28:15.548Z,7.80
2023-03-20T02:31:12.011Z,4.37
2023-03-20T02:37:46.427Z,6.60
2023-03-20T02:40:25.398Z,4.92
2023-03-20T02:43:02.233Z,5.62
2023-03-20T02:45:36.668Z,4.87
2023-03-20T02:48:20.570Z,5.30
2023-03-20T02:50:57.163Z,5.50
2023-03-20T02:53:36.150Z,4.47
2023-03-20T02:56:16.806Z,4.97
2023-03-20T02:58:55.234Z,4.87
2023-03-20T03:01:33.359Z,5.80
2023-03-20T03:04:13.306Z,4.33
2023-03-20T03:06:48.968Z,5.05
2023-03-20T03:09:25.255Z,5.35
2023-03-20T03:12:01.199Z,5.35
2023-03-20T03:14:39.778Z,5.53
2023-03-20T03:17:16.730Z,4.90
2023-03-20T03:23:59.156Z,4.85
2023-03-20T03:27:17.747Z,6.50
2023-03-20T03:30:27.872Z,5.15
2023-03-20T03:37:53.125Z,4.13
2023-03-20T03:41:30.395Z,5.78
2023-03-20T03:44:46.180Z,5.20
2023-03-20T03:48:03.386Z,4.12
2023-03-20T03:51:10.890Z,4.80
2023-03-20T03:54:47.133Z,3.47
2023-03-20T03:58:40.513Z,4.58
2023-03-20T04:01:22.495Z,4.72
2023-03-20T04:04:04.801Z,4.90
2023-03-20T04:06:37.749Z,4.80
2023-03-20T04:09:12.112Z,5.67
2023-03-20T04:11:54.449Z,4.85
2023-03-20T04:14:30.748Z,4.45
2023-03-20T04:17:04.726Z,4.40
2023-03-20T04:19:38.194Z,5.33
2023-03-20T04:22:11.254Z,4.83
2023-03-20T04:24:44.366Z,4.40
2023-03-20T04:27:21.125Z,4.45
2023-03-20T04:29:55.155Z,5.12
2023-03-20T04:32:53.792Z,4.67
2023-03-20T04:35:34.861Z,5.20
2023-03-20T04:38:12.777Z,4.42
2023-03-20T04:40:47.821Z,4.53
2023-03-20T04:43:20.873Z,4.40
2023-03-20T04:45:53.846Z,4.78
2023-03-20T04:48:27.976Z,4.75
2023-03-20T04:51:01.408Z,4.97
2023-03-20T04:53:36.025Z,3.98
2023-03-20T04:56:13.331Z,4.58
2023-03-20T04:58:46.373Z,5.12
2023-03-20T05:01:20.883Z,4.00
2023-03-20T05:03:55.889Z,3.83
2023-03-20T05:06:29.440Z,3.72
2023-03-20T05:09:04.156Z,3.87
2023-03-20T05:11:38.833Z,4.33
2023-03-20T05:14:14.484Z,4.62
2023-03-20T05:16:51.059Z,5.10
2023-03-20T05:19:31.755Z,3.72
2023-03-20T05:22:18.018Z,5.42
2023-03-20T05:24:52.908Z,4.23
2023-03-20T05:27:43.573Z,5.55
2023-03-20T05:30:36.511Z,5.72
2023-03-20T05:33:11.295Z,7.10
2023-03-20T05:38:35.080Z,6.40
2023-03-20T05:41:26.175Z,5.42
2023-03-20T05:44:09.057Z,5.45
2023-03-20T05:46:52.603Z,5.60
2023-03-20T05:49:43.248Z,6.20
2023-03-20T05:52:23.804Z,5.35
2023-03-20T05:55:11.122Z,4.75
2023-03-20T05:57:57.728Z,5.35
2023-03-20T06:00:35.240Z,5.08
2023-03-20T06:03:13.055Z,5.47
2023-03-20T06:05:53.562Z,5.47
2023-03-20T06:08:26.709Z,4.70
2023-03-20T06:11:00.566Z,5.55
2023-03-20T06:13:35.575Z,5.87
2023-03-20T06:16:12.209Z,6.62
2023-03-20T06:18:45.316Z,6.15
2023-03-20T06:21:18.333Z,5.20
2023-03-20T06:23:52.054Z,5.35
2023-03-20T06:26:26.720Z,6.75
2023-03-20T06:29:04.142Z,6.47
2023-03-20T06:31:38.083Z,6.47
2023-03-20T06:34:12.204Z,6.03
2023-03-20T06:36:48.662Z,6.40
2023-03-20T06:39:23.315Z,6.05
2023-03-20T06:41:57.420Z,4.37
2023-03-20T06:44:30.706Z,5.17
2023-03-20T06:47:11.552Z,4.92
2023-03-20T06:49:45.989Z,4.47
2023-03-20T06:52:22.595Z,5.10
2023-03-20T06:54:58.806Z,4.87
2023-03-20T06:57:33.927Z,5.50
2023-03-20T07:00:10.417Z,4.90
2023-03-20T07:02:43.870Z,4.67
2023-03-20T07:05:19.269Z,5.65
2023-03-20T07:07:53.101Z,6.22
2023-03-20T07:10:26.061Z,6.12
2023-03-20T07:12:58.968Z,6.50
2023-03-20T07:15:32.496Z,6.47
2023-03-20T07:18:06.213Z,4.70
2023-03-20T07:20:39.199Z,5.30
2023-03-20T07:23:12.340Z,4.20
2023-03-20T07:25:47.622Z,5.05
2023-03-20T07:28:21.610Z,5.25
2023-03-20T07:30:56.907Z,4.83
2023-03-20T07:33:30.275Z,5.60
2023-03-20T07:36:03.337Z,5.75
2023-03-20T07:38:36.743Z,7.00
2023-03-20T07:41:11.428Z,6.45
2023-03-20T07:43:47.859Z,7.10
2023-03-20T07:46:28.893Z,6.53
2023-03-20T07:49:02.117Z,6.17
2023-03-20T07:51:36.087Z,6.95
2023-03-20T07:54:09.095Z,6.62
2023-03-20T07:56:42.728Z,6.67
2023-03-20T07:59:19.032Z,5.17
2023-03-20T08:01:53.782Z,4.90
2023-03-20T08:04:26.823Z,5.80
2023-03-20T08:07:02.468Z,4.83
2023-03-20T08:09:35.877Z,3.77
2023-03-20T08:12:09.367Z,3.30
2023-03-20T08:14:43.901Z,2.92
2023-03-20T08:17:21.883Z,3.67
2023-03-20T08:19:54.233Z,3.95
2023-03-20T08:22:27.222Z,4.10
2023-03-20T08:25:00.162Z,4.60
2023-03-20T08:27:33.920Z,4.20
2023-03-20T08:30:09.045Z,4.05
2023-03-20T08:32:42.169Z,4.37
2023-03-20T08:35:31.825Z,5.30
2023-03-20T08:37:49.930Z,5.30
2023-03-20T08:40:22.951Z,4.58
2023-03-20T08:42:56.178Z,6.75
2023-03-20T08:45:29.324Z,6.03
2023-03-20T08:48:02.203Z,5.53
2023-03-20T08:50:35.575Z,4.97
2023-03-20T08:53:08.846Z,5.60
2023-03-20T08:55:41.899Z,4.95
2023-03-20T08:58:14.794Z,4.45
2023-03-20T09:00:48.700Z,4.70
2023-03-20T09:03:23.006Z,4.87
2023-03-20T09:05:55.869Z,4.62
2023-03-20T09:08:28.906Z,6.00
2023-03-20T09:11:02.040Z,5.83
2023-03-20T09:16:16.905Z,5.45
2023-03-20T09:18:50.212Z,5.42
2023-03-20T09:21:23.161Z,5.20
2023-03-20T09:23:56.253Z,5.55
2023-03-20T09:26:29.248Z,5.67
2023-03-20T09:29:02.868Z,5.30
2023-03-20T09:31:35.848Z,4.62
2023-03-20T09:34:08.873Z,3.75
2023-03-20T09:36:42.067Z,4.45
2023-03-20T09:39:14.968Z,4.78
2023-03-20T09:41:57.001Z,4.35
2023-03-20T09:44:35.789Z,4.70
2023-03-20T09:47:20.232Z,4.75
2023-03-20T09:49:57.151Z,3.42
2023-03-20T09:52:32.793Z,4.50
2023-03-20T09:55:09.549Z,4.33
2023-03-20T09:57:44.618Z,4.33
2023-03-20T10:00:22.461Z,4.35
2023-03-20T10:02:58.612Z,3.85
2023-03-20T10:05:35.053Z,4.12
2023-03-20T10:08:15.702Z,3.60
2023-03-20T10:10:52.718Z,4.00
2023-03-20T10:14:02.215Z,3.52
2023-03-20T10:16:43.744Z,3.35
2023-03-20T10:19:21.933Z,3.15
2023-03-20T10:21:57.858Z,3.50
2023-03-20T10:24:33.688Z,4.25
2023-03-20T10:27:09.840Z,4.45
2023-03-20T10:29:48.877Z,4.25
2023-03-20T10:32:26.456Z,4.15
2023-03-20T10:37:45.764Z,4.47
2023-03-20T10:40:32.621Z,5.40
2023-03-20T10:43:08.901Z,5.95
2023-03-20T10:45:45.876Z,5.05
2023-03-20T10:48:24.095Z,4.87
2023-03-20T10:50:59.890Z,4.80
2023-03-20T10:53:38.088Z,3.70
2023-03-20T10:56:16.884Z,3.67
2023-03-20T10:58:52.258Z,3.62
2023-03-20T11:01:26.132Z,4.08
2023-03-20T11:03:59.637Z,3.75
2023-03-20T11:06:35.505Z,3.70
2023-03-20T11:09:19.356Z,3.85
2023-03-20T11:11:55.158Z,3.83
2023-03-20T11:14:30.985Z,3.40
2023-03-20T11:17:06.414Z,3.52
2023-03-20T11:19:41.109Z,3.58
2023-03-20T11:22:24.852Z,4.40
2023-03-20T11:25:01.717Z,4.15
2023-03-20T11:27:36.993Z,4.03
2023-03-20T11:30:15.898Z,4.12
2023-03-20T11:32:51.211Z,4.65
2023-03-20T11:35:31.194Z,3.52
2023-03-20T11:38:16.624Z,3.20
2023-03-20T11:40:52.020Z,3.33
2023-03-20T11:43:27.929Z,3.75
2023-03-20T11:46:04.633Z,4.30
2023-03-20T11:48:41.950Z,3.80
2023-03-20T11:51:18.115Z,3.20
2023-03-20T11:54:03.715Z,3.83
2023-03-20T11:56:37.976Z,3.65
2023-03-20T11:59:15.903Z,4.12
2023-03-20T12:01:52.819Z,3.75
2023-03-20T12:04:31.509Z,3.37
2023-03-20T12:07:09.715Z,2.92
2023-03-20T12:09:46.314Z,3.45
2023-03-20T12:15:10.601Z,3.65
2023-03-20T12:17:47.879Z,3.52
2023-03-20T12:20:28.763Z,3.35
2023-03-20T12:23:15.572Z,2.83
2023-03-20T12:25:55.060Z,2.42
2023-03-20T12:28:31.789Z,3.35
2023-03-20T12:31:10.838Z,2.60
2023-03-20T12:33:47.873Z,2.72
2023-03-20T12:36:25.277Z,3.67
2023-03-20T12:38:58.438Z,3.80
2023-03-20T12:41:34.597Z,2.98
2023-03-20T12:44:16.924Z,3.52
2023-03-20T12:46:55.262Z,3.55
2023-03-20T12:49:36.359Z,3.27
2023-03-20T12:52:14.851Z,3.30
2023-03-20T12:55:01.643Z,3.42
2023-03-20T12:57:39.220Z,3.65
2023-03-20T13:00:20.202Z,3.80
2023-03-20T13:02:59.589Z,3.40
2023-03-20T13:05:39.953Z,3.02
2023-03-20T13:08:42.361Z,2.95
2023-03-20T13:11:20.693Z,3.27
2023-03-20T13:13:56.704Z,3.27
2023-03-20T13:16:38.473Z,3.25
2023-03-20T13:19:15.448Z,3.62
2023-03-20T13:21:53.177Z,3.15
2023-03-20T13:27:38.521Z,3.65
2023-03-20T13:30:15.780Z,3.87
2023-03-20T13:32:54.536Z,4.00
2023-03-20T13:35:36.048Z,3.85
2023-03-20T13:38:15.899Z,3.95
2023-03-20T13:40:51.455Z,3.25
2023-03-20T13:43:30.947Z,4.05
2023-03-20T13:46:08.980Z,3.98
2023-03-20T13:48:44.146Z,3.50
2023-03-20T13:51:26.170Z,2.98
2023-03-20T13:54:05.666Z,3.22
2023-03-20T13:56:44.453Z,3.98
2023-03-20T13:59:49.826Z,3.45
2023-03-20T14:02:31.163Z,4.40
2023-03-20T14:05:08.856Z,4.22
2023-03-20T14:13:22.377Z,4.67
2023-03-20T14:15:58.549Z,4.83
2023-03-20T14:18:32.912Z,5.40
2023-03-20T14:21:11.021Z,4.58
2023-03-20T14:23:47.274Z,5.12
2023-03-20T14:26:25.942Z,5.00
2023-03-20T14:29:02.893Z,4.78
2023-03-20T14:31:38.631Z,4.80
2023-03-20T14:34:18.389Z,4.80
2023-03-20T14:37:01.584Z,4.97
2023-03-20T14:39:44.859Z,5.17
2023-03-20T14:42:30.882Z,5.53
2023-03-20T14:45:18.812Z,4.25
2023-03-20T14:47:56.194Z,4.05
2023-03-20T14:50:32.596Z,4.87
2023-03-20T14:53:15.829Z,4.72
2023-03-20T14:56:02.203Z,4.75
2023-03-20T14:58:50.368Z,5.22
2023-03-20T15:04:40.664Z,4.03
2023-03-20T15:07:17.177Z,5.10
2023-03-20T15:09:52.876Z,6.53
2023-03-20T15:12:28.742Z,5.75
2023-03-20T15:15:03.533Z,5.10
2023-03-20T15:17:40.707Z,5.28
2023-03-20T15:20:17.619Z,7.47
2023-03-20T15:22:52.709Z,5.83
2023-03-20T15:25:28.343Z,5.15
2023-03-20T15:28:01.523Z,4.65
2023-03-20T15:30:37.184Z,4.60
2023-03-20T15:33:15.076Z,5.67
2023-03-20T15:35:48.510Z,5.65
2023-03-20T15:38:23.121Z,5.12
2023-03-20T15:40:56.393Z,5.00
2023-03-20T15:43:29.778Z,5.83
2023-03-20T15:46:17.485Z,6.72
2023-03-20T15:48:39.075Z,5.67
2023-03-20T15:51:13.562Z,5.28
2023-03-20T15:53:49.353Z,6.83
2023-03-20T15:56:25.315Z,5.10
2023-03-20T15:59:00.620Z,6.53
2023-03-20T16:01:35.636Z,5.95
2023-03-20T16:04:10.088Z,6.12
2023-03-20T16:06:49.544Z,5.80
2023-03-20T16:09:22.858Z,5.60
2023-03-20T16:12:00.901Z,6.00
2023-03-20T16:14:36.558Z,6.08
2023-03-20T16:17:09.805Z,6.28
2023-03-20T16:19:43.303Z,6.83
2023-03-20T16:22:23.742Z,8.18
2023-03-20T16:24:59.959Z,7.33
2023-03-20T16:27:35.965Z,8.53
2023-03-20T16:30:15.389Z,6.53
2023-03-20T16:32:51.392Z,6.05
2023-03-20T16:35:28.358Z,5.35
2023-03-20T16:38:03.352Z,5.87
2023-03-20T16:40:40.600Z,8.25
2023-03-20T16:43:20.666Z,4.00
2023-03-20T16:45:56.482Z,5.47
2023-03-20T16:48:33.222Z,4.95
2023-03-20T16:51:12.448Z,4.37
2023-03-20T16:53:48.936Z,5.70
2023-03-20T16:56:28.507Z,5.60
2023-03-20T16:59:03.009Z,5.28
2023-03-20T17:01:43.278Z,4.70
2023-03-20T17:04:23.020Z,4.78
2023-03-20T17:06:58.217Z,4.53
2023-03-20T17:09:35.052Z,5.35
2023-03-20T17:12:16.353Z,4.35
2023-03-20T17:14:49.756Z,4.72
2023-03-20T17:17:25.144Z,5.00
2023-03-20T17:20:02.876Z,5.92
2023-03-20T17:22:38.861Z,4.97
2023-03-20T17:25:13.500Z,4.83
2023-03-20T17:27:48.370Z,4.97
2023-03-20T17:30:24.004Z,13.05
2023-03-20T17:32:57.170Z,4.95
2023-03-20T17:35:30.412Z,4.87
2023-03-20T17:38:03.430Z,3.90
2023-03-20T17:40:36.548Z,4.87
2023-03-20T17:43:13.129Z,5.00
2023-03-20T17:45:47.641Z,6.40
2023-03-20T17:48:25.847Z,5.12
2023-03-20T17:51:02.559Z,6.37
2023-03-20T17:53:35.565Z,6.75
2023-03-20T17:56:15.042Z,6.30
2023-03-20T17:58:47.887Z,5.37
2023-03-20T18:01:20.995Z,6.30
2023-03-20T18:03:54.285Z,5.65
2023-03-20T18:06:30.564Z,5.55
2023-03-20T18:09:05.042Z,6.12
2023-03-20T18:11:38.191Z,5.08
2023-03-20T18:14:12.487Z,4.55
2023-03-20T18:16:45.507Z,4.97
2023-03-20T18:19:25.812Z,4.78
2023-03-20T18:21:59.788Z,4.97
2023-03-20T18:24:32.915Z,3.90
2023-03-20T18:27:06.116Z,4.42
2023-03-20T18:29:39.213Z,4.53
2023-03-20T18:32:12.286Z,4.78
2023-03-20T18:35:20.503Z,4.37
2023-03-20T18:37:53.093Z,5.12
2023-03-20T18:40:28.263Z,4.50
2023-03-20T18:43:01.414Z,4.65
2023-03-20T18:45:40.265Z,4.67
2023-03-20T18:51:30.891Z,4.72
2023-03-20T18:54:06.293Z,5.53
2023-03-20T18:56:40.801Z,4.60
2023-03-20T18:59:19.759Z,4.28
2023-03-20T19:01:53.438Z,5.25
2023-03-20T19:04:27.244Z,5.15
2023-03-20T19:07:00.311Z,5.50
2023-03-20T19:09:33.807Z,4.78
2023-03-20T19:12:11.704Z,5.70
2023-03-20T19:14:45.391Z,5.87
2023-03-20T19:17:20.716Z,5.33
2023-03-20T19:19:56.093Z,4.95
2023-03-20T19:22:31.692Z,5.35
2023-03-20T19:25:07.108Z,6.15
2023-03-20T19:27:43.886Z,5.35
2023-03-20T19:30:33.508Z,5.35
2023-03-20T19:33:08.403Z,4.35
2023-03-20T19:36:02.236Z,5.58
2023-03-20T19:38:23.786Z,5.53
2023-03-20T19:40:57.981Z,5.42
2023-03-20T19:43:32.369Z,5.85
2023-03-20T19:46:09.657Z,5.47
2023-03-20T19:48:50.604Z,5.40
2023-03-20T19:51:21.628Z,4.83
2023-03-20T19:53:55.834Z,4.85
2023-03-20T19:56:28.890Z,4.22
2023-03-20T19:59:03.183Z,4.10
2023-03-20T20:01:38.966Z,5.30
2023-03-20T20:04:11.929Z,4.42
2023-03-20T20:06:47.508Z,5.50
2023-03-20T20:09:20.658Z,5.05
2023-03-20T20:11:53.702Z,5.08
2023-03-20T20:14:26.818Z,5.70
2023-03-20T20:16:59.902Z,5.00
2023-03-20T20:19:32.820Z,5.35
2023-03-20T20:22:24.979Z,5.78
2023-03-20T20:24:41.512Z,5.60
2023-03-20T20:27:17.448Z,6.30
2023-03-20T20:29:51.614Z,7.65
2023-03-20T20:32:26.986Z,6.15
2023-03-20T20:38:21.217Z,4.95
2023-03-20T20:40:15.655Z,3.90
2023-03-20T20:42:50.586Z,5.55
2023-03-20T20:45:26.118Z,4.50
2023-03-20T20:47:59.174Z,5.47
2023-03-20T20:50:36.099Z,5.83
2023-03-20T20:53:09.354Z,5.70
2023-03-20T20:55:42.420Z,5.25
2023-03-20T20:58:15.607Z,4.62
2023-03-20T21:00:54.008Z,4.97
2023-03-20T21:03:24.581Z,5.10
2023-03-20T21:05:57.719Z,5.25
2023-03-20T21:08:30.819Z,4.25
2023-03-20T21:11:03.851Z,4.72
2023-03-20T21:13:38.214Z,4.60
2023-03-20T21:16:13.163Z,4.78
2023-03-20T21:18:46.552Z,4.40
2023-03-20T21:21:19.514Z,4.45
2023-03-20T21:23:55.563Z,4.10
2023-03-20T21:26:28.692Z,4.72
2023-03-20T21:29:02.073Z,4.72
2023-03-20T21:31:35.264Z,4.60
2023-03-20T21:34:08.332Z,5.12
2023-03-20T21:36:41.320Z,4.42
2023-03-20T21:39:15.509Z,4.40
2023-03-20T21:41:48.887Z,4.40
2023-03-20T21:44:56.030Z,4.30
2023-03-20T21:47:55.693Z,3.83
2023-03-20T21:52:59.902Z,4.37
2023-03-20T21:57:55.727Z,4.55
2023-03-20T22:00:47.762Z,4.92
2023-03-20T22:02:35.372Z,3.90
2023-03-20T22:05:48.456Z,4.62
2023-03-20T22:08:48.624Z,4.08
2023-03-20T22:21:27.400Z,4.90
2023-03-20T22:24:05.816Z,4.70
2023-03-20T22:26:58.362Z,4.95
2023-03-20T22:29:17.748Z,4.67
2023-03-20T22:34:30.832Z,4.95
2023-03-20T22:37:16.394Z,4.42
2023-03-20T22:39:36.604Z,5.37
2023-03-20T22:42:28.665Z,5.42
2023-03-20T22:44:56.806Z,6.17
2023-03-20T22:46:47.557Z,5.22
2023-03-20T22:49:20.885Z,5.03
2023-03-20T22:52:11.706Z,4.25
2023-03-20T22:54:30.161Z,5.25
2023-03-20T22:57:03.635Z,4.90
2023-03-20T22:59:36.558Z,5.37
2023-03-20T23:02:11.013Z,3.98
2023-03-20T23:04:44.212Z,4.70
2023-03-20T23:07:17.375Z,4.37
2023-03-20T23:09:50.978Z,5.10
2023-03-20T23:12:23.945Z,5.03
2023-03-20T23:14:58.049Z,5.80
2023-03-20T23:17:33.827Z,6.00
2023-03-20T23:20:15.310Z,6.17
2023-03-20T23:22:46.712Z,6.40
2023-03-20T23:25:37.876Z,9.28
2023-03-20T23:27:55.660Z,7.53
2023-03-20T23:30:37.852Z,8.23
2023-03-20T23:33:03.874Z,7.70
2023-03-20T23:35:36.795Z,7.75
2023-03-20T23:38:09.838Z,6.22
2023-03-20T23:40:45.740Z,6.42
2023-03-20T23:43:19.041Z,5.60
2023-03-20T23:45:52.068Z,5.85
2023-03-20T23:48:25.276Z,6.37
2023-03-20T23:50:58.207Z,7.35
2023-03-20T23:53:38.880Z,8.93
2023-03-20T23:56:14.433Z,7.33
2023-03-20T23:58:58.246Z,7.55
